San Pierre, Indiana
Current Conditions -  °F | °C
As of 6:55 PM on Monday 22 Dec 2014 (Local Time) from KOXI Reporting Station
Overcast Overcast  
Wind Chill: 30°   Ceiling: 4400
Heat Index: 38°   Visibility: 2.5mi
Dew Point: 35°   Wind: 13mph
Humidity: 88%   Direction: 110°ESE
Pressure: 29.72"   Gusts: 18mph
Location:  41.2°N, 86.89°W
Report Text: KOXI 230055Z AUTO 11011G16KT 2 1/2SM SCT028 OVC044 03/02 A2972 RMK AO1 T00330015
Loading
Personal Weather Stations






























Interactive Weather Map New forecast layout! Learn more

10-Day Weather Forecast

Advertisements
Track Severe Weather on mobile